The Little Minch, United Kingdom
Current Conditions -  °F | °C
As of 12:50 PM on Thursday 23 Oct 2014 (Local Time) from EGPL Reporting Station
Rain Showers Rain Showers  
Wind Chill: 55°   Ceiling: 4000
Heat Index: 55°   Visibility: 6mi
Dew Point: 50°   Wind: 22mph
Humidity: 82%   Direction: 210°SSW
Pressure: 29.59"   Gusts: NA
Location:  57.5°N, 7°W
Report Text: EGPL 231150Z 21019KT 9999 VCSH FEW018 SCT035 BKN040 13/10 Q1002
Loading
Personal Weather Stations






























Interactive Weather Map New forecast layout! Learn more

10-Day Weather Forecast

Advertisements
Track Severe Weather on mobile